Time;durP1;ratioP1;P1;durP2;ratioP2;P2;SDS_P1;SDS_P2;PMS_P1;PMS_P2;Temp;Humidity;BMP_temperature;BMP_pressure;BME280_temperature;BME280_humidity;BME280_pressure;Samples;Min_cycle;Max_cycle;Signal;HPM_P1;HPM_P2
2023/03/21 00:01:56;;;;;;;6.40;2.67;;;8.20;99.90;;;;;;5005822;28;20038;-76
2023/03/21 00:04:25;;;;;;;8.65;3.13;;;8.20;99.90;;;;;;5010643;28;20041;-76
2023/03/21 00:06:51;;;;;;;5.43;2.75;;;8.20;99.90;;;;;;5002601;28;20034;-76
2023/03/21 00:09:19;;;;;;;6.35;2.78;;;8.20;99.90;;;;;;5008252;28;20036;-77
2023/03/21 00:11:45;;;;;;;6.00;2.70;;;8.20;99.90;;;;;;5009244;28;20033;-77
2023/03/21 00:14:14;;;;;;;4.10;2.53;;;8.20;99.90;;;;;;5003307;28;20057;-76
2023/03/21 00:16:40;;;;;;;6.40;3.20;;;8.20;99.90;;;;;;5006771;28;20049;-76
2023/03/21 00:19:08;;;;;;;4.85;2.55;;;8.20;99.90;;;;;;5002255;28;20049;-77
2023/03/21 00:21:37;;;;;;;5.80;3.13;;;8.20;99.90;;;;;;5012030;28;20030;-77
2023/03/21 00:24:05;;;;;;;5.50;3.08;;;8.30;99.90;;;;;;5006164;28;20049;-76
2023/03/21 00:26:32;;;;;;;6.95;3.58;;;8.30;99.90;;;;;;5004635;28;20042;-77
2023/03/21 00:28:58;;;;;;;11.10;3.90;;;8.30;99.90;;;;;;5001176;28;20043;-76
2023/03/21 00:31:25;;;;;;;6.68;3.33;;;8.30;99.90;;;;;;5005607;28;20057;-76
2023/03/21 00:33:51;;;;;;;8.13;3.88;;;8.30;99.90;;;;;;5006194;28;20045;-76
2023/03/21 00:36:17;;;;;;;4.40;2.72;;;8.30;99.90;;;;;;4987935;28;20046;-77
2023/03/21 00:38:43;;;;;;;7.97;3.83;;;8.30;99.90;;;;;;5004278;28;20206;-78
2023/03/21 00:41:15;;;;;;;8.38;3.65;;;8.30;99.90;;;;;;5008317;28;20050;-76
2023/03/21 00:43:41;;;;;;;8.13;3.72;;;8.30;99.90;;;;;;5009302;28;20034;-75
2023/03/21 00:46:08;;;;;;;6.60;2.60;;;8.30;99.90;;;;;;5008953;28;20041;-78
2023/03/21 00:48:34;;;;;;;7.57;2.92;;;8.30;99.90;;;;;;5008311;28;20379;-76
2023/03/21 00:51:00;;;;;;;6.25;3.38;;;8.30;99.90;;;;;;5003144;28;20030;-75
2023/03/21 00:53:27;;;;;;;8.32;2.65;;;8.40;99.90;;;;;;4998260;28;20050;-76
2023/03/21 00:55:56;;;;;;;4.57;3.05;;;8.40;99.90;;;;;;4986507;28;20486;-75
2023/03/21 00:58:22;;;;;;;6.68;3.50;;;8.30;99.90;;;;;;5001821;28;20049;-75
2023/03/21 01:00:49;;;;;;;5.32;3.20;;;8.30;99.90;;;;;;5005834;28;20390;-76
2023/03/21 01:03:16;;;;;;;6.00;4.13;;;8.30;99.90;;;;;;5005670;28;20415;-75
2023/03/21 01:08:35;;;;;;;5.72;3.22;;;8.30;99.90;;;;;;4984159;28;20292;-75
2023/03/21 01:11:05;;;;;;;4.25;2.88;;;8.30;99.90;;;;;;5000491;28;20038;-75
2023/03/21 01:13:32;;;;;;;5.55;3.17;;;8.30;99.90;;;;;;5004284;28;20039;-75
2023/03/21 01:16:01;;;;;;;4.65;3.60;;;8.20;99.90;;;;;;5004570;28;20030;-75
2023/03/21 01:18:29;;;;;;;6.78;3.28;;;8.20;1.00;;;;;;5007418;28;20042;-75
2023/03/21 01:20:57;;;;;;;8.30;3.22;;;8.20;1.00;;;;;;5002203;28;20522;-74
2023/03/21 01:23:23;;;;;;;7.55;3.15;;;8.20;1.00;;;;;;5002504;28;20030;-75
2023/03/21 01:25:52;;;;;;;5.90;3.42;;;8.20;1.00;;;;;;5003071;28;20038;-75
2023/03/21 01:28:19;;;;;;;5.25;2.95;;;8.20;1.00;;;;;;5006305;28;20491;-76
2023/03/21 01:30:50;;;;;;;8.70;3.17;;;8.20;1.00;;;;;;5002246;28;20053;-76
2023/03/21 01:33:18;;;;;;;7.88;3.08;;;8.30;1.00;;;;;;5004622;28;20031;-76
2023/03/21 01:35:45;;;;;;;7.40;3.85;;;8.30;1.00;;;;;;5001283;28;20043;-75
2023/03/21 01:38:12;;;;;;;4.80;3.05;;;8.30;1.00;;;;;;4988190;28;20052;-77
2023/03/21 01:40:44;;;;;;;6.32;3.50;;;8.30;1.00;;;;;;5004277;28;20046;-76
2023/03/21 01:43:31;;;;;;;4.80;2.78;;;8.30;1.00;;;;;;5008272;28;20049;-76
2023/03/21 01:46:20;;;;;;;6.57;2.92;;;8.30;1.00;;;;;;5001103;28;20046;-76
2023/03/21 01:49:28;;;;;;;6.00;3.10;;;8.30;1.00;;;;;;4984017;28;20046;-76
2023/03/21 01:52:09;;;;;;;7.18;2.92;;;8.30;1.00;;;;;;4987967;28;20049;-76
2023/03/21 01:54:40;;;;;;;6.75;3.72;;;8.30;1.00;;;;;;5000773;28;20372;-76
2023/03/21 01:57:18;;;;;;;6.67;3.33;;;8.30;1.00;;;;;;4990170;28;20049;-76
2023/03/21 01:59:50;;;;;;;11.98;5.88;;;8.30;1.00;;;;;;4985638;28;20630;-76
2023/03/21 02:02:54;;;;;;;7.07;3.55;;;8.30;1.00;;;;;;5010181;28;20046;-77
2023/03/21 02:05:53;;;;;;;8.77;4.20;;;8.30;1.00;;;;;;4998824;28;20118;-76
2023/03/21 02:08:22;;;;;;;7.00;3.30;;;8.20;1.00;;;;;;4985280;28;20050;-75
2023/03/21 02:10:50;;;;;;;8.55;4.15;;;8.30;1.00;;;;;;4986375;28;20042;-75
2023/03/21 02:13:29;;;;;;;5.28;3.35;;;8.30;1.00;;;;;;4985694;28;20053;-76
2023/03/21 02:16:05;;;;;;;7.13;3.70;;;8.30;1.00;;;;;;5002780;28;20038;-76
2023/03/21 02:18:35;;;;;;;6.15;3.70;;;8.30;1.00;;;;;;4984951;28;20064;-77
2023/03/21 02:21:21;;;;;;;6.20;4.00;;;8.30;1.00;;;;;;5003353;28;20037;-76
2023/03/21 02:24:08;;;;;;;9.40;3.40;;;8.30;1.00;;;;;;4985162;28;20475;-76
2023/03/21 02:26:52;;;;;;;;;;;8.30;1.00;;;;;;4970488;28;20080;-76
2023/03/21 02:29:43;;;;;;;7.18;3.38;;;8.20;1.00;;;;;;5014843;28;19929;-76
2023/03/21 02:32:28;;;;;;;7.82;4.10;;;8.20;1.00;;;;;;4999441;28;20047;-76
2023/03/21 02:35:08;;;;;;;6.30;3.20;;;8.20;1.00;;;;;;4991275;28;20046;-77
2023/03/21 02:37:54;;;;;;;6.28;3.63;;;8.20;1.00;;;;;;5004299;28;20050;-76
2023/03/21 02:40:44;;;;;;;5.50;3.13;;;8.10;1.00;;;;;;4999828;28;20042;-75
2023/03/21 02:43:36;;;;;;;5.43;3.15;;;8.10;1.00;;;;;;4999986;28;20038;-76
2023/03/21 02:46:28;;;;;;;5.05;3.63;;;8.10;1.00;;;;;;5004043;28;20518;-76
2023/03/21 02:49:08;;;;;;;6.20;3.72;;;8.10;1.00;;;;;;4997623;28;20042;-76
2023/03/21 02:51:38;;;;;;;5.72;3.92;;;8.10;1.00;;;;;;4999376;28;20359;-77
2023/03/21 02:54:09;;;;;;;5.32;3.67;;;8.10;1.00;;;;;;5005459;28;20042;-76
2023/03/21 02:56:36;;;;;;;8.57;3.53;;;8.10;1.00;;;;;;5005265;28;20387;-76
2023/03/21 02:59:05;;;;;;;7.00;4.13;;;8.00;1.00;;;;;;5019691;28;20038;-76
2023/03/21 03:01:32;;;;;;;6.50;3.45;;;8.00;1.00;;;;;;5006356;28;20052;-76
2023/03/21 03:03:59;;;;;;;5.43;3.42;;;8.00;1.00;;;;;;5006919;28;20047;-76
2023/03/21 03:06:57;;;;;;;11.98;4.78;;;8.00;1.00;;;;;;4987635;28;20052;-76
2023/03/21 03:09:52;;;;;;;5.88;3.50;;;8.00;1.00;;;;;;5003568;28;20034;-76
2023/03/21 03:12:26;;;;;;;5.97;3.17;;;8.00;1.00;;;;;;4974767;28;20042;-76
2023/03/21 03:15:03;;;;;;;5.00;3.33;;;8.00;1.00;;;;;;5005734;28;20049;-76
2023/03/21 03:17:42;;;;;;;7.10;4.38;;;7.90;1.00;;;;;;5013766;28;20046;-76
2023/03/21 03:20:14;;;;;;;5.53;3.42;;;7.90;1.00;;;;;;5009205;28;20105;-75
2023/03/21 03:22:50;;;;;;;7.30;4.15;;;7.90;1.00;;;;;;5012219;28;20030;-75
2023/03/21 03:25:22;;;;;;;6.57;4.57;;;7.90;1.00;;;;;;5005670;28;20045;-75
2023/03/21 03:27:54;;;;;;;8.05;4.35;;;7.90;1.00;;;;;;5005052;28;20061;-76
2023/03/21 03:30:23;;;;;;;6.03;3.70;;;7.90;1.00;;;;;;5014254;28;20093;-76
2023/03/21 03:32:54;;;;;;;9.38;3.45;;;7.80;1.00;;;;;;5009181;28;20050;-76
2023/03/21 03:35:21;;;;;;;8.50;3.88;;;7.80;1.00;;;;;;5005415;28;20489;-76
2023/03/21 03:37:54;;;;;;;4.93;3.55;;;7.80;1.00;;;;;;5004296;28;20038;-76
2023/03/21 03:40:30;;;;;;;6.35;3.42;;;7.80;1.00;;;;;;5002216;28;20038;-75
2023/03/21 03:43:14;;;;;;;5.35;3.70;;;7.80;1.00;;;;;;5000055;28;20048;-75
2023/03/21 03:45:53;;;;;;;8.15;3.80;;;7.80;1.00;;;;;;5004584;28;20049;-75
2023/03/21 03:48:45;;;;;;;8.80;3.95;;;7.80;1.00;;;;;;5002269;28;20053;-75
2023/03/21 03:51:26;;;;;;;5.95;3.72;;;7.80;1.00;;;;;;5002873;28;20492;-75
2023/03/21 03:54:20;;;;;;;5.03;3.20;;;7.80;1.00;;;;;;5005463;28;20045;-75
2023/03/21 03:56:47;;;;;;;6.68;3.40;;;7.80;1.00;;;;;;5003987;28;20046;-75
2023/03/21 03:59:18;;;;;;;6.57;3.88;;;7.70;1.00;;;;;;4998257;28;20038;-76
2023/03/21 04:02:14;;;;;;;6.90;3.42;;;7.70;1.00;;;;;;4994736;28;20049;-75
2023/03/21 04:04:40;;;;;;;5.85;3.40;;;7.70;1.00;;;;;;5002728;28;20050;-75
2023/03/21 04:07:07;;;;;;;8.93;3.80;;;7.70;1.00;;;;;;5005251;28;20034;-75
2023/03/21 04:09:35;;;;;;;8.30;3.72;;;7.70;1.00;;;;;;5002924;28;20042;-75
2023/03/21 04:12:05;;;;;;;6.65;3.47;;;7.70;1.00;;;;;;4999290;28;20506;-75
2023/03/21 04:14:31;;;;;;;5.60;3.47;;;7.70;1.00;;;;;;5005261;28;20057;-76
2023/03/21 04:16:57;;;;;;;7.97;3.75;;;7.70;1.00;;;;;;5003850;28;20475;-75
2023/03/21 04:19:24;;;;;;;5.75;3.83;;;7.70;1.00;;;;;;5002736;28;20039;-76
2023/03/21 04:21:50;;;;;;;6.80;4.10;;;7.60;1.00;;;;;;5007314;28;20046;-76
2023/03/21 04:24:18;;;;;;;8.23;4.07;;;7.70;1.00;;;;;;4985334;28;20593;-77
2023/03/21 04:26:47;;;;;;;7.43;3.22;;;7.70;1.00;;;;;;5001686;28;20049;-77
2023/03/21 04:29:42;;;;;;;9.20;3.92;;;7.70;1.00;;;;;;4992595;28;20061;-74
2023/03/21 04:32:39;;;;;;;8.25;4.38;;;7.70;1.00;;;;;;5023600;28;20048;-74
2023/03/21 04:35:10;;;;;;;8.00;4.15;;;7.70;1.00;;;;;;5008142;28;20430;-75
2023/03/21 04:37:38;;;;;;;5.93;3.53;;;7.80;1.00;;;;;;5003183;28;20371;-75
2023/03/21 04:40:09;;;;;;;6.57;3.60;;;7.80;1.00;;;;;;5004489;28;20049;-76
2023/03/21 04:42:35;;;;;;;5.30;3.65;;;7.80;1.00;;;;;;5007445;28;20038;-75
2023/03/21 04:45:01;;;;;;;6.40;4.03;;;7.70;1.00;;;;;;4991554;28;20037;-76
2023/03/21 04:47:27;;;;;;;7.93;3.88;;;7.70;1.00;;;;;;4998096;28;20035;-75
2023/03/21 04:49:55;;;;;;;7.90;3.92;;;7.70;1.00;;;;;;4999647;28;20050;-76
2023/03/21 04:52:23;;;;;;;8.68;3.97;;;7.70;1.00;;;;;;4998181;28;20050;-75
2023/03/21 04:54:49;;;;;;;8.35;4.82;;;7.70;1.00;;;;;;5004687;28;20051;-75
2023/03/21 04:57:17;;;;;;;5.10;3.67;;;7.60;1.00;;;;;;5003789;28;20053;-76
2023/03/21 04:59:43;;;;;;;7.50;4.57;;;7.60;1.00;;;;;;5005656;28;20050;-75
2023/03/21 05:02:09;;;;;;;8.20;4.13;;;7.60;1.00;;;;;;4982738;28;20042;-76
2023/03/21 05:04:35;;;;;;;8.20;4.13;;;7.60;1.00;;;;;;5007170;28;20047;-76
2023/03/21 05:07:02;;;;;;;9.77;3.63;;;7.60;1.00;;;;;;5003090;28;20463;-76
2023/03/21 05:09:29;;;;;;;6.45;3.80;;;7.60;1.00;;;;;;5001935;28;20048;-75
2023/03/21 05:11:55;;;;;;;5.38;3.65;;;7.70;1.00;;;;;;5009800;28;20418;-76
2023/03/21 05:14:24;;;;;;;6.80;4.13;;;7.70;1.00;;;;;;4999894;28;20053;-77
2023/03/21 05:16:57;;;;;;;5.65;3.40;;;7.70;1.00;;;;;;4993193;28;20065;-74
2023/03/21 05:19:33;;;;;;;8.73;3.70;;;7.70;1.00;;;;;;4989561;28;20563;-74
2023/03/21 05:22:08;;;;;;;6.20;3.65;;;7.70;1.00;;;;;;4977276;28;20210;-77
2023/03/21 05:24:40;;;;;;;7.40;4.00;;;7.70;1.00;;;;;;4988734;28;20049;-74
2023/03/21 05:27:09;;;;;;;8.13;4.03;;;7.70;1.00;;;;;;4989395;28;20045;-75
2023/03/21 05:29:42;;;;;;;10.85;3.80;;;7.60;1.00;;;;;;4988255;28;20391;-76
2023/03/21 05:32:09;;;;;;;7.53;4.13;;;7.60;1.00;;;;;;4973338;28;20046;-76
2023/03/21 05:34:35;;;;;;;9.65;4.57;;;7.60;1.00;;;;;;4990286;28;20023;-76
2023/03/21 05:37:02;;;;;;;8.00;4.38;;;7.50;1.00;;;;;;4989367;28;20414;-76
2023/03/21 05:39:46;;;;;;;5.78;3.88;;;7.60;1.00;;;;;;4970539;28;20073;-76
2023/03/21 05:42:27;;;;;;;10.70;5.25;;;7.60;1.00;;;;;;4972252;28;20046;-77
2023/03/21 05:44:54;;;;;;;8.98;4.88;;;7.60;1.00;;;;;;4973458;28;20042;-75
2023/03/21 05:47:26;;;;;;;7.47;5.53;;;7.60;1.00;;;;;;4961089;28;20109;-76
2023/03/21 05:49:54;;;;;;;11.65;5.43;;;7.60;1.00;;;;;;4987599;28;20581;-76
2023/03/21 05:52:22;;;;;;;10.05;6.05;;;7.60;1.00;;;;;;4974002;28;20042;-76
2023/03/21 05:54:51;;;;;;;7.47;5.43;;;7.60;1.00;;;;;;4973603;28;20063;-77
2023/03/21 05:57:21;;;;;;;9.27;5.95;;;7.60;1.00;;;;;;4972730;28;20494;-76
2023/03/21 05:59:54;;;;;;;14.05;6.18;;;7.60;1.00;;;;;;4987200;28;20050;-76
2023/03/21 06:02:20;;;;;;;12.85;6.68;;;7.60;1.00;;;;;;4972413;28;20073;-76
2023/03/21 06:04:48;;;;;;;7.88;4.85;;;7.70;1.00;;;;;;4988138;28;20038;-78
2023/03/21 06:07:14;;;;;;;9.60;6.07;;;7.80;1.00;;;;;;4973163;28;20038;-79
2023/03/21 06:09:41;;;;;;;8.52;5.20;;;8.00;1.00;;;;;;4973225;28;20403;-77
2023/03/21 06:12:07;;;;;;;9.20;5.80;;;8.20;1.00;;;;;;4973838;28;20026;-77
2023/03/21 06:14:52;;;;;;;9.25;5.68;;;8.70;1.00;;;;;;4989620;28;20047;-77
2023/03/21 06:17:23;;;;;;;13.10;6.15;;;9.50;1.00;;;;;;4959799;28;20034;-89
2023/03/21 06:19:59;;;;;;;9.02;6.00;;;10.40;99.90;;;;;;4963596;28;20043;-75
2023/03/21 06:22:37;;;;;;;8.50;4.97;;;10.50;99.90;;;;;;4990289;28;20602;-75
2023/03/21 06:25:06;;;;;;;8.25;5.32;;;10.20;99.90;;;;;;4973593;28;20049;-75
2023/03/21 06:27:33;;;;;;;10.65;6.10;;;10.10;99.90;;;;;;4991671;28;20042;-75
2023/03/21 06:29:59;;;;;;;9.35;5.13;;;10.10;99.90;;;;;;4992061;28;20047;-78
2023/03/21 06:32:27;;;;;;;9.13;5.45;;;10.00;99.90;;;;;;4979472;28;20510;-78
2023/03/21 06:34:57;;;;;;;8.30;4.82;;;10.00;99.90;;;;;;4979248;28;20487;-77
2023/03/21 06:37:27;;;;;;;9.18;5.00;;;10.00;99.90;;;;;;4978275;28;20055;-86
2023/03/21 06:39:54;;;;;;;10.70;5.82;;;10.00;99.90;;;;;;4993774;28;20038;-75
2023/03/21 06:42:21;;;;;;;11.80;6.95;;;9.90;99.90;;;;;;4979445;28;20050;-79
2023/03/21 06:44:47;;;;;;;9.35;6.40;;;9.90;99.90;;;;;;4978592;28;20064;-77
2023/03/21 06:47:15;;;;;;;9.27;6.20;;;9.80;99.90;;;;;;4961808;28;20046;-78
2023/03/21 06:49:43;;;;;;;10.00;5.43;;;9.80;99.90;;;;;;4975916;28;20043;-78
2023/03/21 06:52:11;;;;;;;13.55;7.30;;;9.80;99.90;;;;;;4993572;28;20049;-78
2023/03/21 06:54:38;;;;;;;11.10;6.63;;;9.80;99.90;;;;;;4978573;28;20502;-79
2023/03/21 06:57:10;;;;;;;7.28;5.60;;;9.90;99.90;;;;;;4976987;28;20050;-77
2023/03/21 06:59:40;;;;;;;11.40;6.55;;;10.00;99.90;;;;;;4974723;28;20050;-82
2023/03/21 07:02:24;;;;;;;9.02;5.93;;;10.00;99.90;;;;;;4977240;28;20054;-79
2023/03/21 07:05:17;;;;;;;9.55;5.60;;;10.10;99.90;;;;;;4994665;28;20049;-78
2023/03/21 07:07:44;;;;;;;14.57;6.05;;;10.30;99.90;;;;;;4967930;28;20053;-77
2023/03/21 07:10:10;;;;;;;9.90;5.78;;;10.70;99.90;;;;;;4990663;28;20041;-78
2023/03/21 07:12:53;;;;;;;8.43;6.00;;;11.10;99.90;;;;;;4977704;28;20501;-75
2023/03/21 07:15:36;;;;;;;9.65;6.15;;;11.30;99.90;;;;;;4976622;28;20049;-77
2023/03/21 07:18:04;;;;;;;8.73;6.10;;;11.50;99.90;;;;;;4978425;28;20042;-84
2023/03/21 07:20:32;;;;;;;7.72;5.45;;;11.60;99.90;;;;;;5003621;28;20042;-75
2023/03/21 07:22:59;;;;;;;13.95;6.43;;;12.00;99.90;;;;;;4990254;28;20042;-75
2023/03/21 07:25:29;;;;;;;8.98;6.22;;;12.20;99.90;;;;;;4980552;28;20472;-80
2023/03/21 07:27:56;;;;;;;10.05;5.60;;;12.20;99.90;;;;;;4996044;28;20061;-75
2023/03/21 07:30:22;;;;;;;7.30;5.00;;;12.10;99.90;;;;;;4992228;28;20038;-76
2023/03/21 07:32:48;;;;;;;10.23;5.78;;;12.10;99.90;;;;;;4991345;28;20651;-75
2023/03/21 07:35:16;;;;;;;7.18;5.07;;;12.10;99.90;;;;;;5009425;28;20587;-77
2023/03/21 07:37:43;;;;;;;6.95;4.32;;;12.10;99.90;;;;;;4975593;28;20039;-75
2023/03/21 07:40:12;;;;;;;7.57;4.90;;;12.20;99.90;;;;;;4974831;28;20042;-75
2023/03/21 07:42:39;;;;;;;7.07;4.70;;;12.20;99.90;;;;;;4991197;28;20476;-75
2023/03/21 07:45:08;;;;;;;6.28;3.88;;;12.00;99.90;;;;;;4991725;28;20045;-76
2023/03/21 07:47:35;;;;;;;8.85;3.83;;;12.20;99.90;;;;;;4992409;28;20391;-76
2023/03/21 07:50:03;;;;;;;9.57;4.05;;;12.20;99.90;;;;;;4991425;28;20486;-76
2023/03/21 07:52:30;;;;;;;9.10;4.55;;;12.40;99.90;;;;;;5007625;28;20049;-77
2023/03/21 07:54:56;;;;;;;7.90;3.78;;;12.60;99.90;;;;;;4992193;28;20033;-76
2023/03/21 07:57:25;;;;;;;9.50;3.97;;;12.60;99.90;;;;;;4993832;28;20033;-76
2023/03/21 07:59:51;;;;;;;8.38;3.55;;;12.90;99.90;;;;;;4992701;28;20034;-76
2023/03/21 08:02:18;;;;;;;8.02;3.65;;;13.10;99.90;;;;;;4992831;28;20034;-76
2023/03/21 08:04:44;;;;;;;7.38;3.60;;;13.50;99.90;;;;;;4993726;28;20030;-78
2023/03/21 08:07:10;;;;;;;6.85;2.88;;;13.60;99.90;;;;;;4994132;28;20031;-76
2023/03/21 08:09:36;;;;;;;6.05;2.90;;;13.50;99.90;;;;;;4991272;28;20412;-78
2023/03/21 08:12:04;;;;;;;7.22;4.40;;;13.50;99.90;;;;;;4992677;28;20034;-76
2023/03/21 08:14:32;;;;;;;7.05;3.65;;;13.30;99.90;;;;;;4992372;28;20046;-77
2023/03/21 08:16:58;;;;;;;7.57;3.35;;;13.40;99.90;;;;;;4993765;28;20034;-77
2023/03/21 08:19:25;;;;;;;11.32;4.95;;;13.40;99.90;;;;;;4989306;28;20034;-77
2023/03/21 08:21:52;;;;;;;7.13;3.63;;;13.40;99.90;;;;;;4991151;28;20049;-76
2023/03/21 08:24:18;;;;;;;7.93;4.03;;;13.30;99.90;;;;;;4992308;28;20023;-78
2023/03/21 08:26:45;;;;;;;11.43;4.45;;;13.40;99.90;;;;;;4991059;28;20360;-77
2023/03/21 08:29:12;;;;;;;8.57;3.92;;;13.50;99.90;;;;;;4991551;28;20046;-79
2023/03/21 08:31:41;;;;;;;7.32;3.35;;;13.40;99.90;;;;;;4990922;28;20050;-78
2023/03/21 08:34:07;;;;;;;6.32;3.70;;;13.30;99.90;;;;;;4993256;28;20026;-78
2023/03/21 08:36:35;;;;;;;10.10;4.07;;;13.80;99.90;;;;;;4993655;28;20480;-77
2023/03/21 08:39:05;;;;;;;10.50;4.18;;;13.90;99.90;;;;;;4990691;28;20049;-77
2023/03/21 08:41:35;;;;;;;7.55;3.90;;;14.00;99.90;;;;;;4992674;28;20034;-83
2023/03/21 08:44:03;;;;;;;6.45;3.13;;;13.90;99.90;;;;;;4992095;28;20050;-77
2023/03/21 08:46:30;;;;;;;6.82;2.85;;;13.90;99.90;;;;;;4992524;28;20045;-77
2023/03/21 08:48:56;;;;;;;4.05;2.50;;;14.00;99.90;;;;;;4991729;28;20034;-79
2023/03/21 08:51:22;;;;;;;13.23;3.03;;;14.00;99.90;;;;;;4991751;28;20152;-78
2023/03/21 08:53:50;;;;;;;3.80;2.38;;;14.10;99.90;;;;;;4993295;28;20034;-77
2023/03/21 08:56:17;;;;;;;4.70;2.67;;;14.30;99.90;;;;;;4991671;28;20035;-77
2023/03/21 08:58:43;;;;;;;4.05;3.30;;;14.40;99.90;;;;;;4990197;28;20383;-77
2023/03/21 09:01:14;;;;;;;5.40;3.03;;;14.30;99.90;;;;;;4993828;28;20034;-78
2023/03/21 09:03:41;;;;;;;5.68;3.17;;;14.30;99.90;;;;;;4990954;28;20026;-78
2023/03/21 09:06:10;;;;;;;8.90;3.17;;;14.20;99.90;;;;;;4992197;28;20400;-75
2023/03/21 09:08:41;;;;;;;5.93;2.47;;;14.20;99.90;;;;;;4991352;28;20053;-76
2023/03/21 09:11:09;;;;;;;7.15;2.78;;;14.50;99.90;;;;;;4989579;28;20042;-77
2023/03/21 09:13:35;;;;;;;10.63;3.42;;;14.50;99.90;;;;;;4991759;28;20038;-77
2023/03/21 09:16:01;;;;;;;6.80;2.97;;;14.50;99.90;;;;;;4992385;28;20037;-76
2023/03/21 09:18:48;;;;;;;6.63;3.13;;;14.60;99.90;;;;;;4989531;28;20038;-77
2023/03/21 09:21:17;;;;;;;9.82;3.88;;;14.70;99.90;;;;;;4991571;28;20026;-78
2023/03/21 09:23:43;;;;;;;7.38;2.95;;;14.60;99.90;;;;;;4990685;28;20456;-78
2023/03/21 09:26:13;;;;;;;3.72;2.42;;;14.60;99.90;;;;;;4990732;28;20030;-78
2023/03/21 09:28:39;;;;;;;6.18;2.95;;;14.50;99.90;;;;;;4991076;28;20053;-81
2023/03/21 09:31:10;;;;;;;6.07;2.58;;;14.50;99.90;;;;;;4992070;28;20034;-78
2023/03/21 09:33:39;;;;;;;5.72;3.53;;;14.50;99.90;;;;;;4989100;28;20038;-78
2023/03/21 09:36:10;;;;;;;6.78;3.50;;;14.40;99.90;;;;;;4992936;28;20053;-79
2023/03/21 09:38:39;;;;;;;4.85;3.65;;;14.30;99.90;;;;;;4987984;28;20066;-78
2023/03/21 09:41:17;;;;;;;7.53;2.65;;;14.40;99.90;;;;;;4991935;28;20135;-77
2023/03/21 09:44:10;;;;;;;5.18;3.10;;;14.50;99.90;;;;;;4989471;28;20030;-77
2023/03/21 09:47:18;;;;;;;5.63;3.13;;;14.50;99.90;;;;;;4989122;28;20149;-79
2023/03/21 09:49:57;;;;;;;10.82;2.72;;;14.80;99.90;;;;;;4990662;28;20045;-78
2023/03/21 09:52:33;;;;;;;6.53;3.53;;;14.80;99.90;;;;;;4989773;28;20037;-78
2023/03/21 09:54:59;;;;;;;6.57;3.55;;;14.90;99.90;;;;;;4989899;28;20043;-79
2023/03/21 09:57:33;;;;;;;8.90;3.50;;;15.00;99.90;;;;;;4990571;28;20054;-78
2023/03/21 10:00:18;;;;;;;8.45;3.50;;;15.00;99.90;;;;;;4988173;28;20046;-79
2023/03/21 10:02:50;;;;;;;6.32;2.83;;;15.10;99.90;;;;;;4988788;28;20061;-79
2023/03/21 10:05:18;;;;;;;9.15;2.60;;;15.20;99.90;;;;;;4991382;28;20475;-79
2023/03/21 10:08:04;;;;;;;5.38;3.03;;;15.30;99.90;;;;;;4999448;28;20052;-82
2023/03/21 10:10:36;;;;;;;7.75;2.58;;;15.30;99.90;;;;;;4991585;28;20038;-79
2023/03/21 10:13:09;;;;;;;8.40;3.47;;;15.20;99.90;;;;;;4991609;28;20038;-79
2023/03/21 10:15:36;;;;;;;4.47;2.30;;;15.10;99.90;;;;;;4990378;28;20419;-77
2023/03/21 10:18:06;;;;;;;3.35;2.45;;;15.00;99.90;;;;;;4981391;28;20049;-76
2023/03/21 10:20:34;;;;;;;4.30;2.65;;;15.10;99.90;;;;;;4994054;28;20031;-77
2023/03/21 10:23:05;;;;;;;5.15;2.65;;;15.20;99.90;;;;;;4990216;28;20145;-77
2023/03/21 10:25:52;;;;;;;4.85;2.50;;;15.00;99.90;;;;;;4992328;28;20506;-78
2023/03/21 10:28:24;;;;;;;4.00;2.45;;;14.90;99.90;;;;;;4991112;28;20054;-80
2023/03/21 10:31:03;;;;;;;5.93;3.00;;;15.00;99.90;;;;;;4991675;28;20042;-80
2023/03/21 10:33:38;;;;;;;4.95;2.78;;;15.10;99.90;;;;;;4993677;28;20041;-79
2023/03/21 10:36:19;;;;;;;4.70;2.42;;;15.00;99.90;;;;;;4990556;28;20153;-78
2023/03/21 10:38:49;;;;;;;4.95;2.03;;;14.80;99.90;;;;;;4993653;28;20041;-78
2023/03/21 10:41:15;;;;;;;4.78;2.38;;;14.80;99.90;;;;;;4988129;28;20047;-78
2023/03/21 10:43:44;;;;;;;5.07;2.63;;;14.80;99.90;;;;;;4991144;28;20030;-78
2023/03/21 10:46:16;;;;;;;8.32;2.88;;;14.70;99.90;;;;;;4988604;28;20050;-80
2023/03/21 10:48:45;;;;;;;5.72;2.20;;;14.70;99.90;;;;;;4987212;28;20042;-78
2023/03/21 10:51:20;;;;;;;4.50;2.10;;;14.70;99.90;;;;;;4990893;28;20041;-77
2023/03/21 10:54:03;;;;;;;4.25;2.30;;;14.80;99.90;;;;;;4989326;28;20383;-78
2023/03/21 10:56:34;;;;;;;4.78;2.13;;;15.00;99.90;;;;;;4985470;28;20069;-80
2023/03/21 10:59:01;;;;;;;8.30;3.22;;;15.10;99.90;;;;;;4988056;28;20029;-78
2023/03/21 11:01:36;;;;;;;5.10;2.47;;;14.90;99.90;;;;;;4991562;28;20038;-77
2023/03/21 11:04:16;;;;;;;7.07;2.67;;;14.80;99.90;;;;;;4988756;28;20591;-78
2023/03/21 11:06:50;;;;;;;10.90;2.67;;;14.60;99.90;;;;;;4990935;28;20030;-78
2023/03/21 11:09:20;;;;;;;7.50;2.50;;;14.50;99.90;;;;;;4986848;28;20420;-79
2023/03/21 11:11:51;;;;;;;5.95;2.95;;;14.30;99.90;;;;;;4988877;28;20041;-78
2023/03/21 11:14:31;;;;;;;4.93;2.42;;;14.20;99.90;;;;;;4990452;28;20031;-78
2023/03/21 11:16:57;;;;;;;6.57;1.88;;;14.20;99.90;;;;;;4992899;28;20041;-79
2023/03/21 11:19:34;;;;;;;4.22;2.03;;;14.10;99.90;;;;;;4993104;28;20388;-78
2023/03/21 11:22:07;;;;;;;4.70;1.92;;;14.00;99.90;;;;;;4993716;28;20037;-83
2023/03/21 11:24:34;;;;;;;4.82;2.28;;;14.00;99.90;;;;;;4994793;28;20034;-80
2023/03/21 11:27:06;;;;;;;4.45;2.92;;;14.00;99.90;;;;;;4991277;28;20043;-79
2023/03/21 11:29:35;;;;;;;6.70;2.58;;;13.80;99.90;;;;;;4991450;28;20042;-79
2023/03/21 11:32:18;;;;;;;4.50;3.50;;;13.70;99.90;;;;;;4993429;28;20046;-77
2023/03/21 11:34:57;;;;;;;5.93;2.80;;;13.70;99.90;;;;;;4992275;28;20034;-77
2023/03/21 11:37:27;;;;;;;6.18;3.20;;;13.90;99.90;;;;;;4992813;28;20037;-79
2023/03/21 11:40:18;;;;;;;7.00;3.15;;;14.10;99.90;;;;;;4993972;28;20149;-77
2023/03/21 11:42:48;;;;;;;6.28;2.40;;;14.20;99.90;;;;;;4992738;28;20042;-78
2023/03/21 11:45:19;;;;;;;9.77;2.22;;;14.20;99.90;;;;;;4992182;28;20034;-78
2023/03/21 11:47:48;;;;;;;6.15;2.88;;;14.10;99.90;;;;;;4973868;28;20038;-84
2023/03/21 11:50:41;;;;;;;4.00;2.63;;;14.10;99.90;;;;;;4991551;28;20391;-77
2023/03/21 11:53:28;;;;;;;4.53;2.38;;;14.20;99.90;;;;;;4991252;28;20044;-77
2023/03/21 11:56:15;;;;;;;4.20;2.40;;;14.20;99.90;;;;;;4992068;28;20049;-78
2023/03/21 11:58:56;;;;;;;4.55;2.72;;;14.20;99.90;;;;;;4992657;28;20530;-76
2023/03/21 12:01:48;;;;;;;5.22;3.10;;;14.40;99.90;;;;;;4994596;28;20431;-76
2023/03/21 12:04:27;;;;;;;4.13;2.75;;;14.40;99.90;;;;;;4990280;28;20126;-77
2023/03/21 12:07:25;;;;;;;5.55;3.03;;;14.20;99.90;;;;;;4993013;28;20034;-77
2023/03/21 12:10:00;;;;;;;6.68;2.95;;;14.20;99.90;;;;;;4973548;28;20042;-77
2023/03/21 12:12:45;;;;;;;4.03;2.53;;;14.30;99.90;;;;;;4988618;28;20398;-78
2023/03/21 12:15:23;;;;;;;4.30;2.95;;;14.60;99.90;;;;;;4992329;28;20034;-79
2023/03/21 12:18:07;;;;;;;5.68;2.47;;;14.80;99.90;;;;;;4993621;28;20037;-77
2023/03/21 12:20:47;;;;;;;5.57;2.42;;;15.10;99.90;;;;;;4992525;28;20042;-77
2023/03/21 12:23:42;;;;;;;3.47;2.28;;;15.10;99.90;;;;;;4996220;28;20037;-77
2023/03/21 12:26:22;;;;;;;7.75;3.45;;;15.40;99.90;;;;;;4991562;28;20049;-78
2023/03/21 12:28:56;;;;;;;3.63;2.53;;;15.60;99.90;;;;;;4990008;28;20368;-78
2023/03/21 12:31:30;;;;;;;4.43;2.80;;;15.40;99.90;;;;;;4997738;28;20049;-77
2023/03/21 12:34:21;;;;;;;6.97;3.30;;;15.40;99.90;;;;;;4992327;28;20034;-79
2023/03/21 12:37:01;;;;;;;6.30;3.15;;;15.50;99.90;;;;;;4993491;28;20041;-78
2023/03/21 12:39:37;;;;;;;7.55;2.95;;;15.40;99.90;;;;;;4992563;28;20042;-78
2023/03/21 12:42:43;;;;;;;4.93;2.75;;;15.30;99.90;;;;;;4976961;28;20027;-77
2023/03/21 12:45:16;;;;;;;3.58;2.28;;;15.30;99.90;;;;;;4991905;28;20061;-77
2023/03/21 12:47:48;;;;;;;4.20;2.45;;;15.20;99.90;;;;;;4990000;28;20037;-80
2023/03/21 12:50:19;;;;;;;4.53;2.50;;;15.30;99.90;;;;;;4993667;28;20026;-76
2023/03/21 12:52:54;;;;;;;3.33;2.13;;;15.40;99.90;;;;;;4991788;28;20022;-78
2023/03/21 12:55:23;;;;;;;5.55;2.15;;;15.30;99.90;;;;;;4991827;28;20046;-78
2023/03/21 12:58:18;;;;;;;8.50;2.30;;;15.30;99.90;;;;;;4989980;28;20046;-77
2023/03/21 13:00:53;;;;;;;4.05;2.28;;;15.60;99.90;;;;;;4992089;28;20041;-77
2023/03/21 13:03:34;;;;;;;5.40;2.10;;;15.80;99.90;;;;;;4995145;28;20365;-77
2023/03/21 13:06:10;;;;;;;3.63;2.22;;;15.90;99.90;;;;;;4990449;28;20034;-77
2023/03/21 13:08:47;;;;;;;3.95;2.22;;;15.80;99.90;;;;;;4991100;28;20030;-79
2023/03/21 13:11:18;;;;;;;2.90;1.98;;;15.60;99.90;;;;;;4992985;28;20026;-78
2023/03/21 13:14:09;;;;;;;3.42;1.80;;;15.50;99.90;;;;;;4997776;28;20053;-80
2023/03/21 13:16:41;;;;;;;3.60;2.03;;;15.50;99.90;;;;;;4993365;28;20046;-77
2023/03/21 13:19:33;;;;;;;2.78;1.60;;;15.40;99.90;;;;;;4997599;28;20038;-78
2023/03/21 13:21:59;;;;;;;3.83;1.52;;;15.40;99.90;;;;;;4985898;28;20038;-78
2023/03/21 13:24:32;;;;;;;4.82;2.60;;;15.50;99.90;;;;;;4991644;28;20460;-77
2023/03/21 13:27:05;;;;;;;6.65;1.85;;;15.50;99.90;;;;;;4990699;28;20491;-79
2023/03/21 13:29:40;;;;;;;4.05;1.77;;;15.50;99.90;;;;;;4993139;28;20054;-77